Airfield :
LOGIN :

Register | Disclaimer

   EN    FR    IT 

 










Legend :    VFR   Marginal VFR   IFR   Intensive IFR   Very Intensive IFR
Visi :
Ceiling :
>= 8 km
>= 3000ft
5 to 8 km
1000 to 3000 ft
1500m to 5 km
500 to 1000 ft
800 to 1500m
200 to 500 ft
< 800m
< 200 ft
Symbols :   Thunderstorms  Fog  Heavy snow  Heavy precipitations  Wind > 20 kt
SIGMETs :     Misc.  Thunderstorms  Icing  Turbulence  Mountain Waves  Volcanic Ashes






- Airport Elevation : 138 ft
- IATA code : RLG


ETNL - Rostock Laage

CURRENT METAR :
  • 230020Z 26017KT 9999 SCT032 BKN230 06/00 Q1009 BLU+

EXPIRED METARs :
  • 222320Z 27022KT 9999 SCT100 BKN310 07/M01 Q1009 BLU+
  • 222233Z 26020G35KT 9999 FEW040 BKN100 07/00 Q1008 BLU

TAF TAF ETNL
Valid from the 23 at 00:00 until the 23 at 12:00 UTC


222310Z 2300/2312 25015G30KT 9999 NSW FEW030 BKN050
TEMPO 2300/2312 28020G35KT 7000 -RA SCT015 BKN020 OVC060 BY ETGL



MET'MAP, your aeronautical weather chart ! - Copyright ORBIFLY December 2007 - Disclaimer

ORBIFLY MET'MAP TEAM :

Programming & Development : Alexandra Zaïnal
Concept & original design : Baudouin d'Aumeries
Assistance for programming : Marc-Olivier Méhu
Technical & hardware support : Manuel Goepfert

Contact : metmap@orbifly.com




SOURCES & CREDITS :

   NOAA